createdAt,value
2022-11-22T00:01:07.631Z,0.16
2022-11-22T00:03:35.393Z,0.27
2022-11-22T00:06:03.698Z,0.43
2022-11-22T00:08:33.562Z,0.47
2022-11-22T00:11:01.402Z,0.44
2022-11-22T00:13:29.406Z,0.17
2022-11-22T00:16:04.895Z,0.51
2022-11-22T00:18:32.777Z,0.42
2022-11-22T00:21:08.973Z,0.48
2022-11-22T00:23:36.842Z,0.36
2022-11-22T00:26:04.773Z,0.41
2022-11-22T00:28:32.846Z,0.21
2022-11-22T00:31:00.683Z,0.39
2022-11-22T00:33:28.593Z,0.24
2022-11-22T00:35:57.148Z,0.41
2022-11-22T00:38:25.227Z,0.48
2022-11-22T00:40:53.038Z,0.51
2022-11-22T00:43:21.224Z,0.57
2022-11-22T00:45:49.113Z,0.26
2022-11-22T00:48:16.981Z,0.58
2022-11-22T00:50:45.197Z,0.33
2022-11-22T00:53:13.072Z,0.58
2022-11-22T00:55:40.859Z,0.34
2022-11-22T00:58:09.061Z,0.61
2022-11-22T01:00:37.017Z,0.56
2022-11-22T01:03:04.989Z,0.33
2022-11-22T01:05:33.131Z,0.61
2022-11-22T01:08:01.017Z,0.59
2022-11-22T01:10:29.095Z,0.33
2022-11-22T01:12:58.769Z,0.51
2022-11-22T01:15:26.676Z,0.57
2022-11-22T01:17:54.509Z,0.55
2022-11-22T01:20:23.287Z,0.59
2022-11-22T01:22:51.220Z,0.63
2022-11-22T01:25:19.041Z,0.55
2022-11-22T01:27:47.999Z,0.38
2022-11-22T01:30:16.223Z,0.40
2022-11-22T01:32:45.443Z,0.76
2022-11-22T01:35:13.491Z,0.72
2022-11-22T01:37:42.066Z,0.68
2022-11-22T01:40:11.748Z,0.77
2022-11-22T01:42:54.441Z,0.56
2022-11-22T01:45:31.622Z,0.78
2022-11-22T01:48:18.662Z,0.70
2022-11-22T01:50:50.395Z,0.78
2022-11-22T01:53:25.622Z,0.78
2022-11-22T01:55:55.932Z,0.76
2022-11-22T01:58:24.967Z,0.84
2022-11-22T02:00:54.708Z,0.63
2022-11-22T02:03:23.757Z,0.60
2022-11-22T02:05:53.485Z,0.60
2022-11-22T02:08:40.071Z,0.82
2022-11-22T02:11:09.846Z,0.84
2022-11-22T02:13:43.916Z,0.77
2022-11-22T02:16:12.842Z,0.55
2022-11-22T02:18:41.047Z,0.41
2022-11-22T02:21:09.621Z,0.45
2022-11-22T02:24:03.856Z,0.69
2022-11-22T02:26:32.508Z,0.67
2022-11-22T02:29:06.711Z,0.63
2022-11-22T02:31:43.313Z,0.59
2022-11-22T02:34:12.944Z,0.43
2022-11-22T02:36:50.243Z,0.31
2022-11-22T02:39:26.816Z,0.50
2022-11-22T02:41:57.355Z,0.46
2022-11-22T02:44:25.972Z,0.11
2022-11-22T02:46:55.816Z,0.37
2022-11-22T02:49:25.673Z,0.54
2022-11-22T02:51:54.033Z,0.47
2022-11-22T02:54:22.061Z,0.48
2022-11-22T02:56:50.148Z,0.37
2022-11-22T02:59:18.258Z,0.21
2022-11-22T03:01:48.020Z,0.50
2022-11-22T03:04:25.331Z,0.38
2022-11-22T03:06:57.683Z,0.44
2022-11-22T03:09:27.841Z,0.59
2022-11-22T03:11:56.851Z,0.56
2022-11-22T03:14:24.921Z,0.53
2022-11-22T03:16:53.435Z,0.52
2022-11-22T03:19:21.381Z,0.40
2022-11-22T03:21:49.481Z,0.19
2022-11-22T03:24:19.532Z,0.52
2022-11-22T03:26:49.741Z,0.21
2022-11-22T03:29:18.170Z,0.49
2022-11-22T03:31:46.119Z,0.30
2022-11-22T03:34:15.784Z,0.48
2022-11-22T03:36:44.265Z,0.49
2022-11-22T03:39:12.705Z,0.50
2022-11-22T03:41:40.667Z,0.52
2022-11-22T03:44:08.750Z,0.48
2022-11-22T03:46:36.824Z,0.48
2022-11-22T03:49:04.754Z,0.46
2022-11-22T03:51:32.593Z,0.23
2022-11-22T03:54:00.589Z,0.03
2022-11-22T03:56:28.565Z,0.55
2022-11-22T03:58:56.886Z,0.33
2022-11-22T04:01:25.107Z,0.21
2022-11-22T04:03:53.039Z,0.12
2022-11-22T04:06:20.868Z,0.54
2022-11-22T04:08:48.907Z,0.59
2022-11-22T04:11:16.894Z,0.59
2022-11-22T04:14:03.628Z,0.63
2022-11-22T04:16:31.627Z,0.60
2022-11-22T04:18:59.500Z,0.60
2022-11-22T04:21:36.608Z,0.63
2022-11-22T04:24:31.594Z,0.53
2022-11-22T04:26:59.836Z,0.55
2022-11-22T04:29:28.559Z,0.50
2022-11-22T04:32:15.571Z,0.59
2022-11-22T04:34:43.936Z,0.59
2022-11-22T04:37:11.717Z,0.57
2022-11-22T04:39:39.660Z,0.22
2022-11-22T04:42:26.502Z,0.51
2022-11-22T04:44:54.452Z,0.46
2022-11-22T04:47:42.916Z,0.50
2022-11-22T04:50:32.947Z,0.43
2022-11-22T04:53:00.932Z,0.41
2022-11-22T04:55:28.737Z,0.47
2022-11-22T04:57:59.990Z,0.57
2022-11-22T05:00:32.570Z,0.57
2022-11-22T05:03:00.813Z,0.56
2022-11-22T05:05:29.201Z,0.32
2022-11-22T05:08:00.409Z,0.61
2022-11-22T05:10:28.577Z,0.57
2022-11-22T05:12:57.327Z,0.37
2022-11-22T05:15:25.519Z,0.54
2022-11-22T05:17:53.443Z,0.59
2022-11-22T05:20:21.447Z,0.61
2022-11-22T05:23:08.233Z,0.31
2022-11-22T05:25:36.203Z,-0.17
2022-11-22T05:28:04.662Z,0.29
2022-11-22T05:30:32.597Z,0.55
2022-11-22T05:33:00.463Z,0.58
2022-11-22T05:35:28.403Z,0.58
2022-11-22T05:38:00.179Z,0.65
2022-11-22T05:40:28.127Z,0.27
2022-11-22T05:42:57.502Z,0.63
2022-11-22T05:45:25.672Z,0.41
2022-11-22T05:47:53.568Z,0.39
2022-11-22T05:50:24.182Z,0.70
2022-11-22T05:52:58.442Z,0.57
2022-11-22T05:55:26.304Z,0.46
2022-11-22T05:57:54.156Z,0.52
2022-11-22T06:00:22.408Z,0.46
2022-11-22T06:02:50.194Z,0.61
2022-11-22T06:05:18.262Z,0.62
2022-11-22T06:07:46.734Z,0.51
2022-11-22T06:10:14.714Z,0.42
2022-11-22T06:12:43.358Z,0.45
2022-11-22T06:15:11.753Z,0.39
2022-11-22T06:17:39.973Z,0.42
2022-11-22T06:20:09.000Z,0.28
2022-11-22T06:22:36.971Z,0.15
2022-11-22T06:25:06.351Z,0.05
2022-11-22T06:27:34.393Z,0.09
2022-11-22T06:30:02.277Z,0.37
2022-11-22T06:32:34.585Z,0.39
2022-11-22T06:35:03.636Z,0.24
2022-11-22T06:37:31.668Z,0.29
2022-11-22T06:39:59.577Z,0.37
2022-11-22T06:42:27.790Z,0.31
2022-11-22T06:44:55.727Z,0.30
2022-11-22T06:47:23.587Z,0.16
2022-11-22T06:49:51.830Z,0.46
2022-11-22T06:52:19.665Z,0.42
2022-11-22T06:54:47.543Z,0.59
2022-11-22T06:57:16.414Z,0.50
2022-11-22T06:59:44.233Z,0.47
2022-11-22T07:02:12.829Z,0.48
2022-11-22T07:05:02.301Z,0.32
2022-11-22T07:07:28.741Z,0.55
2022-11-22T07:09:57.215Z,0.56
2022-11-22T07:12:24.953Z,0.14
2022-11-22T07:14:52.786Z,0.60
2022-11-22T07:17:20.951Z,0.62
2022-11-22T07:19:48.978Z,0.53
2022-11-22T07:22:16.776Z,0.67
2022-11-22T07:24:44.780Z,0.57
2022-11-22T07:27:12.565Z,0.38
2022-11-22T07:29:40.408Z,0.61
2022-11-22T07:32:08.415Z,0.51
2022-11-22T07:34:36.172Z,0.60
2022-11-22T07:37:08.876Z,0.59
2022-11-22T07:39:37.527Z,0.70
2022-11-22T07:42:05.502Z,0.74
2022-11-22T07:44:33.383Z,0.85
2022-11-22T07:47:01.641Z,0.91
2022-11-22T07:49:29.818Z,0.72
2022-11-22T07:51:59.563Z,0.68
2022-11-22T07:54:27.987Z,0.55
2022-11-22T07:56:55.829Z,0.65
2022-11-22T07:59:23.747Z,0.73
2022-11-22T08:01:52.089Z,0.52
2022-11-22T08:04:20.112Z,0.74
2022-11-22T08:06:48.034Z,0.82
2022-11-22T08:09:16.245Z,0.64
2022-11-22T08:11:44.085Z,0.76
2022-11-22T08:14:12.383Z,0.61
2022-11-22T08:16:40.526Z,0.85
2022-11-22T08:19:09.026Z,0.86
2022-11-22T08:21:40.060Z,1.00
2022-11-22T08:24:08.189Z,0.65
2022-11-22T08:26:36.570Z,0.94
2022-11-22T08:29:12.580Z,0.75
2022-11-22T08:31:42.194Z,0.83
2022-11-22T08:34:10.092Z,1.10
2022-11-22T08:36:38.829Z,1.05
2022-11-22T08:39:07.133Z,1.13
2022-11-22T08:41:34.956Z,1.13
2022-11-22T08:44:02.874Z,0.89
2022-11-22T08:46:31.062Z,1.14
2022-11-22T08:48:58.920Z,1.13
2022-11-22T08:51:26.764Z,1.21
2022-11-22T08:53:55.030Z,1.22
2022-11-22T08:56:23.407Z,0.97
2022-11-22T08:58:51.511Z,1.37
2022-11-22T09:01:21.528Z,1.66
2022-11-22T09:03:50.315Z,1.61
2022-11-22T09:09:35.673Z,1.63
2022-11-22T09:11:56.760Z,1.56
2022-11-22T09:14:25.199Z,1.74
2022-11-22T09:16:53.042Z,1.77
2022-11-22T09:19:21.004Z,1.78
2022-11-22T09:21:49.560Z,1.54
2022-11-22T09:24:17.548Z,1.73
2022-11-22T09:26:45.561Z,1.23
2022-11-22T09:29:15.803Z,1.47
2022-11-22T09:31:43.868Z,1.62
2022-11-22T09:34:11.784Z,1.59
2022-11-22T09:36:40.047Z,1.44
2022-11-22T09:39:10.114Z,1.75
2022-11-22T09:42:12.099Z,1.71
2022-11-22T09:44:45.403Z,1.67
2022-11-22T09:48:02.114Z,1.66
2022-11-22T09:50:36.145Z,1.45
2022-11-22T09:53:17.232Z,1.27
2022-11-22T09:55:50.164Z,1.20
2022-11-22T09:58:41.686Z,1.55
2022-11-22T10:01:44.028Z,1.70
2022-11-22T10:04:21.600Z,1.46
2022-11-22T10:07:22.717Z,1.78
2022-11-22T10:10:04.113Z,1.84
2022-11-22T10:12:59.067Z,1.81
2022-11-22T10:15:54.366Z,1.52
2022-11-22T10:18:38.672Z,1.83
2022-11-22T10:21:18.074Z,1.30
2022-11-22T10:23:47.546Z,1.54
2022-11-22T10:26:29.634Z,1.70
2022-11-22T10:29:37.228Z,1.60
2022-11-22T10:32:28.805Z,1.45
2022-11-22T10:35:14.847Z,1.74
2022-11-22T10:38:32.612Z,1.59
2022-11-22T10:41:28.639Z,1.85
2022-11-22T10:44:21.030Z,1.83
2022-11-22T10:47:09.639Z,1.90
2022-11-22T10:49:40.356Z,1.90
2022-11-22T10:52:32.629Z,1.85
2022-11-22T10:55:22.366Z,1.95
2022-11-22T10:58:08.429Z,1.92
2022-11-22T11:00:43.976Z,1.95
2022-11-22T11:03:44.040Z,2.10
2022-11-22T11:06:29.570Z,2.16
2022-11-22T11:12:19.795Z,2.29
2022-11-22T11:14:53.612Z,1.97
2022-11-22T11:17:30.057Z,2.05
2022-11-22T11:20:03.600Z,1.71
2022-11-22T11:23:12.426Z,2.17
2022-11-22T11:25:40.773Z,1.97
2022-11-22T11:28:30.170Z,2.14
2022-11-22T11:31:19.088Z,2.54
2022-11-22T11:33:47.612Z,2.57
2022-11-22T11:36:24.062Z,2.56
2022-11-22T11:38:57.136Z,2.51
2022-11-22T11:41:38.834Z,2.44
2022-11-22T11:44:29.298Z,2.74
2022-11-22T11:46:58.696Z,2.71
2022-11-22T11:49:31.654Z,2.55
2022-11-22T11:52:19.701Z,2.49
2022-11-22T11:54:54.320Z,2.71
2022-11-22T11:57:34.104Z,2.66
2022-11-22T12:00:07.092Z,2.66
2022-11-22T12:02:51.002Z,2.72
2022-11-22T12:05:19.547Z,2.71
2022-11-22T12:07:48.313Z,2.68
2022-11-22T12:10:47.254Z,2.82
2022-11-22T12:13:21.572Z,2.90
2022-11-22T12:16:03.385Z,2.90
2022-11-22T12:18:44.726Z,2.91
2022-11-22T12:21:28.964Z,2.83
2022-11-22T12:27:10.661Z,2.69
2022-11-22T12:29:44.907Z,2.95
2022-11-22T12:32:16.250Z,3.06
2022-11-22T12:35:18.781Z,3.00
2022-11-22T12:38:25.137Z,2.86
2022-11-22T12:40:57.459Z,2.85
2022-11-22T12:43:36.417Z,2.80
2022-11-22T12:46:18.925Z,2.79
2022-11-22T12:49:26.837Z,2.91
2022-11-22T12:52:10.786Z,2.81
2022-11-22T12:55:15.345Z,2.84
2022-11-22T12:58:25.832Z,3.01
2022-11-22T13:01:16.333Z,3.10
2022-11-22T13:04:11.538Z,2.87
2022-11-22T13:06:45.264Z,2.99
2022-11-22T13:09:20.808Z,2.98
2022-11-22T13:11:58.207Z,2.99
2022-11-22T13:14:44.819Z,2.85
2022-11-22T13:17:17.072Z,2.91
2022-11-22T13:20:23.267Z,2.95
2022-11-22T13:23:11.391Z,2.68
2022-11-22T13:25:45.597Z,2.68
2022-11-22T13:28:20.567Z,2.79
2022-11-22T13:31:10.248Z,2.76
2022-11-22T13:33:57.025Z,2.64
2022-11-22T13:36:31.875Z,2.73
2022-11-22T13:39:23.736Z,2.44
2022-11-22T13:41:57.784Z,2.77
2022-11-22T13:44:49.202Z,2.75
2022-11-22T13:47:17.598Z,2.73
2022-11-22T13:49:49.203Z,2.69
2022-11-22T13:52:17.287Z,2.48
2022-11-22T13:54:48.926Z,2.56
2022-11-22T13:57:35.186Z,2.17
2022-11-22T14:00:15.197Z,2.15
2022-11-22T14:03:43.676Z,2.42
2022-11-22T14:06:26.113Z,1.97
2022-11-22T14:09:38.355Z,2.31
2022-11-22T14:12:29.517Z,1.97
2022-11-22T14:15:37.859Z,2.10
2022-11-22T14:18:46.133Z,2.16
2022-11-22T14:21:48.713Z,2.09
2022-11-22T14:24:43.778Z,2.10
2022-11-22T14:27:20.385Z,1.81
2022-11-22T14:30:23.539Z,2.08
2022-11-22T14:33:13.749Z,2.17
2022-11-22T14:36:07.524Z,1.96
2022-11-22T14:38:45.595Z,1.85
2022-11-22T14:41:28.941Z,2.18
2022-11-22T14:44:20.254Z,1.87
2022-11-22T14:47:04.655Z,1.96
2022-11-22T14:49:47.160Z,1.94
2022-11-22T14:55:17.441Z,1.97
2022-11-22T14:57:51.885Z,1.78
2022-11-22T15:00:22.230Z,1.96
2022-11-22T15:03:20.655Z,1.92
2022-11-22T15:09:21.960Z,2.04
2022-11-22T15:09:50.643Z,1.99
2022-11-22T15:12:21.601Z,1.76
2022-11-22T15:59:44.885Z,1.68
2022-11-22T16:02:32.415Z,1.70
2022-11-22T16:06:06.485Z,1.77
2022-11-22T16:07:57.047Z,1.68
2022-11-22T16:10:37.912Z,1.81
2022-11-22T16:13:23.101Z,1.86
2022-11-22T16:16:13.782Z,1.93
2022-11-22T16:18:43.792Z,1.93
2022-11-22T16:21:11.638Z,1.89
2022-11-22T16:23:45.489Z,1.78
2022-11-22T16:26:21.959Z,1.91
2022-11-22T16:28:54.923Z,1.74
2022-11-22T16:31:27.674Z,1.88
2022-11-22T16:33:57.067Z,1.77
2022-11-22T16:36:29.668Z,1.86
2022-11-22T16:38:58.631Z,1.57
2022-11-22T16:41:29.502Z,1.41
2022-11-22T16:44:21.298Z,1.87
2022-11-22T16:46:49.231Z,1.92
2022-11-22T16:49:20.462Z,1.91
2022-11-22T16:51:50.349Z,1.89
2022-11-22T16:54:20.775Z,1.82
2022-11-22T16:56:48.979Z,1.70
2022-11-22T16:59:17.043Z,1.95
2022-11-22T17:01:45.361Z,1.71
2022-11-22T17:04:26.560Z,1.80
2022-11-22T17:06:54.811Z,1.94
2022-11-22T17:09:22.768Z,1.68
2022-11-22T17:11:51.182Z,1.95
2022-11-22T17:14:19.632Z,1.68
2022-11-22T17:16:47.869Z,1.95
2022-11-22T17:22:07.245Z,2.05
2022-11-22T17:24:36.016Z,2.16
2022-11-22T17:27:04.050Z,1.90
2022-11-22T17:29:49.912Z,1.59
2022-11-22T17:32:19.957Z,2.31
2022-11-22T17:34:47.933Z,2.18
2022-11-22T17:37:15.851Z,2.10
2022-11-22T17:39:43.837Z,2.18
2022-11-22T17:42:12.208Z,2.24
2022-11-22T17:44:40.077Z,2.25
2022-11-22T17:47:08.982Z,2.27
2022-11-22T17:49:37.357Z,1.68
2022-11-22T17:52:06.264Z,2.29
2022-11-22T17:54:34.550Z,2.18
2022-11-22T17:57:02.641Z,2.27
2022-11-22T17:59:30.965Z,2.35
2022-11-22T18:01:59.209Z,2.23
2022-11-22T18:04:27.363Z,2.29
2022-11-22T18:06:57.562Z,2.27
2022-11-22T18:09:26.093Z,2.12
2022-11-22T18:11:55.897Z,2.28
2022-11-22T18:14:23.915Z,2.37
2022-11-22T18:16:51.975Z,2.13
2022-11-22T18:19:20.878Z,2.09
2022-11-22T18:21:49.379Z,2.27
2022-11-22T18:24:17.494Z,2.34
2022-11-22T18:26:45.595Z,2.14
2022-11-22T18:32:02.940Z,2.35
2022-11-22T18:34:31.673Z,2.35
2022-11-22T18:37:03.058Z,2.32
2022-11-22T18:39:41.803Z,2.17
2022-11-22T18:42:15.283Z,2.23
2022-11-22T18:44:43.981Z,2.30
2022-11-22T18:47:12.011Z,2.35
2022-11-22T18:49:40.242Z,2.42
2022-11-22T18:52:10.700Z,2.37
2022-11-22T18:54:41.369Z,2.41
2022-11-22T18:57:10.053Z,2.30
2022-11-22T18:59:38.064Z,2.26
2022-11-22T19:02:06.766Z,2.20
2022-11-22T19:04:35.131Z,2.26
2022-11-22T19:07:03.193Z,2.17
2022-11-22T19:09:32.786Z,2.22
2022-11-22T19:12:01.200Z,2.22
2022-11-22T19:14:29.869Z,2.18
2022-11-22T19:16:58.043Z,2.17
2022-11-22T19:19:26.644Z,2.19
2022-11-22T19:21:54.680Z,1.96
2022-11-22T19:24:22.703Z,1.81
2022-11-22T19:26:51.169Z,2.04
2022-11-22T19:29:19.382Z,1.81
2022-11-22T19:31:48.299Z,1.71
2022-11-22T19:34:16.701Z,1.79
2022-11-22T19:36:44.961Z,2.02
2022-11-22T19:39:16.609Z,1.74
2022-11-22T19:41:45.505Z,1.91
2022-11-22T19:44:14.623Z,1.89
2022-11-22T19:46:42.744Z,1.85
2022-11-22T19:49:11.112Z,1.59
2022-11-22T19:51:39.250Z,1.78
2022-11-22T19:54:07.612Z,1.59
2022-11-22T19:56:38.665Z,1.56
2022-11-22T19:59:10.766Z,1.48
2022-11-22T20:01:41.762Z,1.58
2022-11-22T20:04:13.328Z,1.66
2022-11-22T20:06:44.856Z,1.60
2022-11-22T20:09:16.359Z,1.63
2022-11-22T20:11:45.638Z,1.64
2022-11-22T20:14:13.524Z,1.70
2022-11-22T20:16:42.120Z,1.70
2022-11-22T20:19:12.582Z,1.73
2022-11-22T20:21:41.132Z,1.67
2022-11-22T20:24:09.721Z,1.50
2022-11-22T20:26:37.890Z,1.63
2022-11-22T20:29:08.589Z,1.43
2022-11-22T20:31:38.948Z,1.64
2022-11-22T20:34:10.215Z,1.66
2022-11-22T20:36:41.426Z,1.59
2022-11-22T20:39:10.890Z,1.63
2022-11-22T20:41:40.466Z,1.57
2022-11-22T20:44:14.825Z,1.50
2022-11-22T20:46:45.357Z,1.39
2022-11-22T20:49:18.075Z,1.56
2022-11-22T20:51:46.330Z,1.71
2022-11-22T20:54:14.543Z,1.65
2022-11-22T20:56:43.051Z,1.73
2022-11-22T20:59:14.303Z,1.43
2022-11-22T21:01:45.405Z,1.37
2022-11-22T21:04:19.144Z,1.57
2022-11-22T21:06:47.481Z,1.17
2022-11-22T21:09:16.866Z,1.53
2022-11-22T21:11:45.652Z,1.25
2022-11-22T21:14:13.874Z,1.37
2022-11-22T21:16:45.264Z,1.40
2022-11-22T21:19:16.423Z,1.33
2022-11-22T21:21:46.246Z,1.32
2022-11-22T21:24:14.366Z,1.30
2022-11-22T21:26:42.711Z,1.35
2022-11-22T21:29:16.533Z,1.19
2022-11-22T21:31:45.259Z,1.24
2022-11-22T21:34:13.632Z,1.33
2022-11-22T21:36:43.491Z,1.42
2022-11-22T21:39:13.737Z,1.35
2022-11-22T21:41:42.583Z,1.24
2022-11-22T21:44:11.228Z,1.24
2022-11-22T21:46:39.843Z,1.29
2022-11-22T21:49:08.186Z,1.14
2022-11-22T21:51:37.239Z,1.30
2022-11-22T21:54:05.897Z,1.33
2022-11-22T21:56:35.583Z,1.30
2022-11-22T21:59:04.019Z,1.10
2022-11-22T22:01:32.938Z,1.51
2022-11-22T22:04:01.251Z,1.60
2022-11-22T22:06:29.664Z,1.30
2022-11-22T22:08:57.942Z,1.27
2022-11-22T22:11:26.212Z,1.51
2022-11-22T22:13:55.753Z,1.39
2022-11-22T22:16:26.071Z,1.51
2022-11-22T22:18:54.508Z,1.30
2022-11-22T22:21:22.573Z,1.50
2022-11-22T22:23:50.709Z,1.40
2022-11-22T22:26:18.773Z,1.33
2022-11-22T22:28:47.202Z,1.12
2022-11-22T22:31:22.730Z,0.96
2022-11-22T22:33:57.068Z,1.27
2022-11-22T22:36:27.271Z,1.43
2022-11-22T22:38:55.831Z,1.41
2022-11-22T22:41:23.873Z,1.33
2022-11-22T22:43:51.931Z,1.02
2022-11-22T22:46:22.928Z,1.23
2022-11-22T22:48:52.164Z,1.51
2022-11-22T22:51:32.281Z,1.08
2022-11-22T22:54:01.579Z,1.45
2022-11-22T22:56:32.488Z,1.47
2022-11-22T22:59:01.187Z,1.52
2022-11-22T23:01:31.350Z,1.30
2022-11-22T23:04:02.072Z,1.46
2022-11-22T23:06:32.840Z,1.39
2022-11-22T23:09:01.585Z,1.45
2022-11-22T23:11:51.288Z,1.52
2022-11-22T23:14:24.253Z,1.44
2022-11-22T23:16:57.314Z,1.37
2022-11-22T23:19:27.383Z,1.34
2022-11-22T23:21:55.874Z,1.19
2022-11-22T23:24:24.059Z,1.34
2022-11-22T23:26:52.195Z,1.30
2022-11-22T23:29:20.439Z,1.06
2022-11-22T23:31:48.341Z,1.19
2022-11-22T23:34:16.359Z,1.40
2022-11-22T23:36:44.864Z,1.35
2022-11-22T23:39:12.777Z,1.19
2022-11-22T23:41:41.226Z,1.25
2022-11-22T23:44:09.533Z,1.15
2022-11-22T23:46:37.623Z,0.98
2022-11-22T23:49:06.314Z,0.87
2022-11-22T23:51:36.829Z,1.13
2022-11-22T23:54:06.350Z,0.95
2022-11-22T23:56:36.508Z,1.19
2022-11-22T23:59:05.750Z,1.19
